Portada
METAR-TAF:

METAR-TAF

Aeroports :

Saint-Pierre, Saint-Pierre i Miquelon

latitud: 46-46N, longitud: 056-10W, altitud: 3 m

Observació

L'informe es va fer fa 30 minuts, a les 13:30 UTC
Vent 6 kt del Sud-Oest
Temperatura 7°C
Humitat 93%
Pressió 1010 hPa
Visibilitat 10 km o més
Cel ennuvolat a una alçada de 400 ft
Cel ennuvolat a una alçada de 10000 ft
Cel ennuvolat a una alçada de 14000 ft

METAR: LFVP 221330Z AUTO 23006KT 9999 BKN004 BKN100 BKN140 07/06 Q1010 BECMG SCT002 BKN080

Hora: 12:00 (14:00 UTC)

Pronòstic

L'informe es va fer fa 3 hores i 0 minuts, a les 11:00 UTC
Pronòstic vàlid del 22 a les 12 UTC al 22 a les 21 UTC
Vent 8 kt del Oest/Sud-Oest
Visibilitat: 8000 m
Núvols disperses a una alçada de 200 ft
Cel ennuvolat a una alçada de 8000 ft

TAF: LFVP 221100Z 2212/2221 24008KT 8000 SCT002 BKN080

Observacions i pronòstics meteorològics de més de 4000 aeroports (METAR i TAF).

Les estacions disponibles són els punts grocs i vermells al mapa.

Posi el ratolí al punt desitjat per veure el nom de l'estació.

Feu clic per veure les observacions i els pronòstics meteorològics.

Per canviar el mapa: feu clic els botons verds amb una creu de color negre per apropar; al botó verd amb un guió per allunyar la imatge; o en les fletxes verdes per a mapes adjacents.


METAR-TAF: